createdAt,value
2022-10-14T00:07:53.165Z,11.29
2022-10-14T00:19:53.244Z,11.28
2022-10-14T00:31:53.175Z,11.26
2022-10-14T00:43:53.278Z,11.23
2022-10-14T00:55:53.168Z,11.23
2022-10-14T01:07:53.190Z,11.21
2022-10-14T01:19:53.252Z,11.19
2022-10-14T01:31:53.163Z,11.17
2022-10-14T01:43:53.248Z,11.15
2022-10-14T01:55:53.237Z,11.14
2022-10-14T02:07:53.277Z,11.14
2022-10-14T02:19:53.160Z,11.11
2022-10-14T02:31:53.231Z,11.11
2022-10-14T02:43:53.252Z,11.10
2022-10-14T02:55:53.272Z,11.09
2022-10-14T03:07:53.177Z,11.07
2022-10-14T03:19:53.159Z,11.06
2022-10-14T03:31:53.167Z,11.05
2022-10-14T03:43:53.282Z,11.03
2022-10-14T03:55:53.291Z,11.03
2022-10-14T04:07:53.236Z,11.02
2022-10-14T04:19:53.169Z,11.01
2022-10-14T04:31:53.166Z,11.00
2022-10-14T04:43:53.271Z,11.00
2022-10-14T04:55:53.233Z,10.98
2022-10-14T05:07:53.284Z,10.98
2022-10-14T05:19:53.280Z,10.97
2022-10-14T05:31:53.176Z,10.97
2022-10-14T05:43:53.169Z,10.96
2022-10-14T05:55:53.278Z,10.95
2022-10-14T06:07:53.289Z,10.95
2022-10-14T06:19:53.195Z,10.94
2022-10-14T06:31:53.180Z,10.93
2022-10-14T06:43:53.281Z,10.93
2022-10-14T06:55:53.262Z,10.93
2022-10-14T07:07:53.320Z,10.92
2022-10-14T07:19:53.266Z,10.92
2022-10-14T07:31:53.181Z,10.92
2022-10-14T07:43:53.166Z,10.91
2022-10-14T07:55:53.158Z,10.91
2022-10-14T08:07:53.235Z,10.91
2022-10-14T08:19:53.283Z,10.91
2022-10-14T08:31:53.211Z,10.91
2022-10-14T08:43:53.160Z,10.90
2022-10-14T08:55:53.169Z,10.90
2022-10-14T09:07:53.164Z,10.90
2022-10-14T09:19:53.170Z,10.89
2022-10-14T09:31:53.238Z,10.89
2022-10-14T09:43:53.250Z,10.90
2022-10-14T09:55:53.174Z,10.89
2022-10-14T10:07:53.271Z,10.89
2022-10-14T10:19:53.180Z,10.88
2022-10-14T10:31:53.287Z,10.89
2022-10-14T10:43:53.164Z,10.89
2022-10-14T10:55:53.170Z,10.87
2022-10-14T11:07:53.176Z,10.88
2022-10-14T11:19:53.298Z,10.88
2022-10-14T11:31:53.230Z,10.87
2022-10-14T11:43:53.234Z,10.87
2022-10-14T11:55:53.246Z,10.87
2022-10-14T12:07:53.289Z,10.87
2022-10-14T12:19:53.266Z,10.86
2022-10-14T12:31:53.234Z,10.86
2022-10-14T12:43:53.260Z,10.85
2022-10-14T12:55:53.239Z,10.85
2022-10-14T13:07:53.272Z,10.85
2022-10-14T13:19:53.160Z,10.85
2022-10-14T13:31:53.165Z,11.35
2022-10-14T13:43:53.167Z,11.60
2022-10-14T13:55:54.451Z,11.82
2022-10-14T14:08:36.726Z,12.08
2022-10-14T14:19:53.259Z,12.51
2022-10-14T14:32:07.900Z,12.66
2022-10-14T14:44:13.588Z,12.67
2022-10-14T14:55:53.238Z,12.64
2022-10-14T15:07:53.172Z,12.64
2022-10-14T15:19:53.233Z,12.64
2022-10-14T15:31:53.251Z,12.65
2022-10-14T15:43:53.266Z,12.66
2022-10-14T15:55:53.266Z,12.59
2022-10-14T16:07:53.229Z,12.56
2022-10-14T16:19:53.244Z,12.54
2022-10-14T16:31:53.165Z,12.52
2022-10-14T16:43:53.160Z,12.49
2022-10-14T16:55:53.162Z,12.48
2022-10-14T17:07:53.162Z,12.45
2022-10-14T17:19:53.221Z,12.42
2022-10-14T17:31:53.171Z,12.42
2022-10-14T17:43:53.216Z,12.39
2022-10-14T17:55:56.944Z,12.38
2022-10-14T18:07:53.244Z,12.37
2022-10-14T18:19:53.164Z,12.35
2022-10-14T18:31:53.204Z,12.34
2022-10-14T18:43:53.165Z,12.32
2022-10-14T18:55:58.032Z,12.30
2022-10-14T19:07:53.166Z,12.29
2022-10-14T19:19:53.158Z,12.27
2022-10-14T19:31:53.169Z,12.25
2022-10-14T19:43:53.168Z,12.23
2022-10-14T19:55:53.447Z,12.23
2022-10-14T20:07:53.236Z,12.21
2022-10-14T20:19:53.412Z,12.20
2022-10-14T20:31:53.186Z,12.18
2022-10-14T20:43:53.169Z,12.16
2022-10-14T20:55:54.889Z,12.15
2022-10-14T21:07:53.171Z,12.14
2022-10-14T21:19:53.162Z,12.12
2022-10-14T21:31:53.223Z,12.11
2022-10-14T21:43:53.227Z,12.09
2022-10-14T21:55:53.504Z,12.08
2022-10-14T22:07:53.251Z,12.07
2022-10-14T22:19:53.230Z,12.05
2022-10-14T22:31:53.478Z,12.04
2022-10-14T22:43:53.275Z,12.02
2022-10-14T22:55:53.167Z,12.01
2022-10-14T23:07:53.275Z,12.00
2022-10-14T23:19:53.230Z,11.98
2022-10-14T23:31:53.244Z,11.95
2022-10-14T23:43:53.172Z,11.95
2022-10-14T23:55:53.160Z,11.94
